Time;durP1;ratioP1;P1;durP2;ratioP2;P2;SDS_P1;SDS_P2;PMS_P1;PMS_P2;Temp;Humidity;BMP_temperature;BMP_pressure;BME280_temperature;BME280_humidity;BME280_pressure;Samples;Min_cycle;Max_cycle;Signal;HPM_P1;HPM_P2
2023/10/19 04:32:31;;;;;;;0.10;0.10;;;16.00;90.30;;;;;;4880951;23;20057;-77
2023/10/19 04:34:58;;;;;;;0.10;0.10;;;15.90;90.00;;;;;;4886492;29;20105;-78
2023/10/19 04:37:24;;;;;;;0.10;0.05;;;15.80;90.00;;;;;;4870849;29;20445;-77
2023/10/19 04:39:50;;;;;;;0.08;0.08;;;15.80;90.30;;;;;;4884082;29;20037;-78
2023/10/19 04:42:16;;;;;;;0.10;0.10;;;15.80;90.30;;;;;;4867045;29;20077;-78
2023/10/19 04:44:41;;;;;;;0.10;0.10;;;15.80;90.40;;;;;;4866637;29;20026;-77
2023/10/19 04:47:07;;;;;;;0.00;0.00;;;15.80;90.30;;;;;;4866612;29;20038;-77
2023/10/19 04:49:33;;;;;;;0.10;0.10;;;15.80;90.30;;;;;;4876533;29;20033;-78
2023/10/19 04:51:58;;;;;;;0.10;0.10;;;15.80;90.20;;;;;;4879595;29;20117;-78
2023/10/19 04:54:24;;;;;;;0.10;0.10;;;15.80;90.40;;;;;;4866656;29;20049;-77
2023/10/19 04:56:52;;;;;;;0.10;0.10;;;15.80;90.10;;;;;;4874210;29;20033;-75
2023/10/19 04:59:18;;;;;;;0.00;0.00;;;15.80;90.30;;;;;;4866902;29;20025;-80
2023/10/19 05:01:43;;;;;;;0.00;0.00;;;15.70;90.30;;;;;;4874789;29;20029;-81
2023/10/19 05:04:09;;;;;;;0.00;0.00;;;15.70;90.30;;;;;;4868165;29;20028;-80
2023/10/19 05:06:35;;;;;;;0.08;0.08;;;15.80;90.40;;;;;;4878423;29;20045;-79
2023/10/19 05:09:03;;;;;;;0.10;0.10;;;15.70;90.00;;;;;;4865309;29;20040;-82
2023/10/19 05:11:28;;;;;;;0.10;0.10;;;15.80;90.20;;;;;;4865031;29;20045;-82
2023/10/19 05:13:54;;;;;;;0.00;0.00;;;15.80;90.00;;;;;;4863842;29;20459;-79
2023/10/19 05:16:20;;;;;;;0.00;0.00;;;15.80;90.30;;;;;;4865980;29;20040;-81
2023/10/19 05:18:46;;;;;;;0.10;0.10;;;15.70;90.00;;;;;;4878925;29;20029;-84
2023/10/19 05:21:12;;;;;;;0.08;0.08;;;15.70;90.10;;;;;;4866504;29;20037;-86
2023/10/19 05:23:38;;;;;;;0.05;0.05;;;15.70;90.10;;;;;;4866240;29;20087;-82
2023/10/19 05:26:06;;;;;;;0.03;0.03;;;15.70;90.20;;;;;;4872377;29;20030;-85
2023/10/19 05:28:32;;;;;;;0.00;0.00;;;15.70;90.10;;;;;;4864991;29;20029;-84
2023/10/19 05:30:59;;;;;;;0.00;0.00;;;15.60;90.10;;;;;;4870013;29;20078;-83
2023/10/19 05:33:25;;;;;;;0.10;0.10;;;15.70;90.20;;;;;;4882917;29;20040;-83
2023/10/19 05:35:51;;;;;;;0.10;0.10;;;15.60;90.20;;;;;;4867659;29;20089;-84
2023/10/19 05:38:22;;;;;;;0.10;0.10;;;15.70;90.30;;;;;;4874279;29;20525;-84
2023/10/19 05:40:49;;;;;;;0.10;0.10;;;15.70;90.00;;;;;;4883333;29;20032;-84
2023/10/19 05:43:15;;;;;;;0.00;0.00;;;15.70;89.90;;;;;;4866948;29;20029;-83
2023/10/19 05:45:41;;;;;;;0.00;0.00;;;15.70;90.10;;;;;;4884435;29;20166;-81
2023/10/19 05:48:07;;;;;;;0.10;0.10;;;15.70;90.10;;;;;;4850607;29;20571;-84
2023/10/19 05:50:36;;;;;;;0.10;0.10;;;15.60;90.10;;;;;;4848683;29;20034;-83
2023/10/19 05:53:05;;;;;;;0.10;0.10;;;15.60;90.20;;;;;;4848791;29;20025;-83
2023/10/19 05:55:31;;;;;;;0.00;0.00;;;15.50;90.10;;;;;;4865678;29;20037;-84
2023/10/19 05:57:57;;;;;;;0.10;0.10;;;15.50;90.20;;;;;;4865288;29;20059;-84
2023/10/19 06:00:25;;;;;;;0.00;0.00;;;15.50;90.20;;;;;;4864066;29;20453;-84
2023/10/19 06:02:51;;;;;;;0.10;0.10;;;15.50;90.20;;;;;;4863651;29;20040;-84
2023/10/19 06:05:18;;;;;;;0.10;0.10;;;15.50;90.00;;;;;;4882360;29;20112;-85
2023/10/19 06:07:49;;;;;;;0.10;0.10;;;15.50;90.20;;;;;;4860698;29;20033;-83
2023/10/19 06:10:16;;;;;;;0.10;0.10;;;15.50;90.30;;;;;;4863270;29;20037;-84
2023/10/19 06:12:47;;;;;;;0.10;0.10;;;15.50;90.30;;;;;;4872819;29;20061;-85
2023/10/19 06:15:14;;;;;;;0.10;0.10;;;15.50;90.30;;;;;;4863992;29;20033;-84
2023/10/19 06:17:41;;;;;;;0.10;0.10;;;15.60;90.30;;;;;;4864331;29;20030;-83
2023/10/19 06:20:29;;;;;;;0.10;0.10;;;15.50;90.30;;;;;;4848592;29;20034;-83
2023/10/19 06:23:03;;;;;;;0.08;0.08;;;15.50;90.20;;;;;;4864298;29;20505;-84
2023/10/19 06:25:30;;;;;;;0.10;0.10;;;15.50;90.50;;;;;;4865218;29;20034;-84
2023/10/19 06:27:57;;;;;;;0.10;0.10;;;15.50;90.40;;;;;;4864875;29;20029;-83
2023/10/19 06:30:23;;;;;;;0.00;0.00;;;15.50;90.40;;;;;;4848466;29;20036;-83
2023/10/19 06:32:53;;;;;;;0.10;0.10;;;15.60;90.40;;;;;;4850166;29;20038;-82
2023/10/19 06:35:20;;;;;;;0.10;0.10;;;15.60;90.50;;;;;;4873242;29;20108;-83
2023/10/19 06:37:47;;;;;;;0.10;0.10;;;15.70;90.50;;;;;;4880616;29;20044;-83
2023/10/19 06:40:14;;;;;;;0.00;0.00;;;15.70;90.50;;;;;;4880173;29;20600;-83
2023/10/19 06:42:41;;;;;;;0.10;0.10;;;15.80;90.30;;;;;;4866054;29;20144;-84
2023/10/19 06:45:09;;;;;;;0.10;0.10;;;15.70;90.20;;;;;;4864764;29;20049;-83
2023/10/19 06:47:38;;;;;;;0.00;0.00;;;15.80;90.20;;;;;;4864590;29;20026;-83
2023/10/19 06:50:07;;;;;;;0.10;0.10;;;15.80;90.30;;;;;;4857545;29;20038;-82
2023/10/19 06:52:35;;;;;;;0.10;0.10;;;15.80;90.40;;;;;;4848411;29;20025;-83
2023/10/19 06:55:03;;;;;;;0.10;0.10;;;15.80;90.30;;;;;;4864694;29;20029;-84
2023/10/19 06:57:29;;;;;;;0.10;0.10;;;15.90;90.30;;;;;;4847997;29;20025;-83
2023/10/19 06:59:54;;;;;;;0.10;0.10;;;15.90;90.20;;;;;;4864641;29;20041;-83
2023/10/19 07:02:20;;;;;;;0.10;0.10;;;16.00;90.20;;;;;;4847478;29;20033;-83
2023/10/19 07:04:47;;;;;;;0.10;0.10;;;16.00;90.10;;;;;;4861603;29;20029;-83
2023/10/19 07:07:13;;;;;;;0.10;0.10;;;16.00;90.20;;;;;;4864464;29;20391;-84
2023/10/19 07:09:39;;;;;;;0.15;0.10;;;16.00;90.10;;;;;;4864253;29;20029;-83
2023/10/19 07:12:07;;;;;;;0.10;0.10;;;16.10;90.10;;;;;;4864574;29;20032;-83
2023/10/19 07:14:33;;;;;;;0.10;0.10;;;16.10;90.20;;;;;;4863173;29;20094;-83
2023/10/19 07:17:00;;;;;;;0.10;0.10;;;16.20;90.20;;;;;;4861989;29;20033;-83
2023/10/19 07:19:25;;;;;;;0.10;0.10;;;16.20;90.20;;;;;;4853192;29;20040;-83
2023/10/19 07:21:57;;;;;;;0.10;0.10;;;16.20;90.20;;;;;;4864483;29;20478;-83
2023/10/19 07:24:24;;;;;;;0.10;0.10;;;16.30;90.30;;;;;;4864309;29;20408;-85
2023/10/19 07:26:53;;;;;;;0.10;0.10;;;16.30;90.20;;;;;;4858632;29;20070;-84
2023/10/19 07:29:20;;;;;;;0.10;0.10;;;16.30;90.30;;;;;;4866098;29;20036;-82
2023/10/19 07:31:46;;;;;;;0.10;0.10;;;16.30;90.40;;;;;;4871450;29;20067;-83
2023/10/19 07:34:15;;;;;;;0.10;0.10;;;16.30;90.40;;;;;;4876396;29;20116;-82
2023/10/19 07:36:42;;;;;;;0.17;0.17;;;16.30;90.50;;;;;;4874867;29;20028;-84
2023/10/19 07:39:13;;;;;;;0.10;0.10;;;16.30;90.50;;;;;;4862841;29;20513;-82
2023/10/19 07:41:40;;;;;;;0.10;0.10;;;16.30;90.70;;;;;;4879890;29;20566;-83
2023/10/19 07:44:06;;;;;;;0.10;0.10;;;16.40;90.60;;;;;;4881379;29;20021;-83
2023/10/19 07:46:31;;;;;;;0.10;0.10;;;16.30;90.60;;;;;;4882752;29;20029;-83
2023/10/19 07:48:59;;;;;;;0.10;0.10;;;16.40;90.60;;;;;;4877756;29;20025;-83
2023/10/19 07:51:25;;;;;;;0.10;0.10;;;16.40;90.60;;;;;;4864166;29;20033;-84
2023/10/19 07:53:51;;;;;;;0.10;0.10;;;16.40;90.60;;;;;;4863710;29;20036;-82
2023/10/19 07:56:17;;;;;;;0.10;0.10;;;16.40;90.60;;;;;;4864104;29;20037;-83
2023/10/19 07:58:43;;;;;;;0.10;0.10;;;16.40;90.60;;;;;;4864021;29;20026;-84
2023/10/19 08:01:08;;;;;;;0.10;0.10;;;16.50;90.50;;;;;;4863928;29;20036;-83
2023/10/19 08:03:35;;;;;;;0.10;0.10;;;16.70;90.50;;;;;;4866098;29;20082;-84
2023/10/19 08:06:01;;;;;;;0.05;0.05;;;16.70;90.40;;;;;;4864175;29;20029;-83
2023/10/19 08:08:33;;;;;;;0.20;0.20;;;16.90;90.30;;;;;;4864167;29;20053;-84
2023/10/19 08:11:00;;;;;;;0.10;0.10;;;17.10;90.20;;;;;;4862672;29;20040;-85
2023/10/19 08:13:26;;;;;;;0.10;0.10;;;17.10;89.90;;;;;;4870827;29;20076;-85
2023/10/19 08:15:52;;;;;;;0.10;0.10;;;17.20;89.70;;;;;;4883665;29;20064;-84
2023/10/19 08:18:18;;;;;;;0.10;0.10;;;17.30;89.60;;;;;;4886016;29;20033;-84
2023/10/19 08:20:45;;;;;;;0.10;0.10;;;17.30;89.60;;;;;;4886192;29;20033;-83
2023/10/19 08:23:13;;;;;;;0.10;0.10;;;17.40;89.60;;;;;;4885966;29;20029;-84
2023/10/19 08:25:39;;;;;;;0.08;0.08;;;17.40;89.70;;;;;;4867712;29;20097;-85
2023/10/19 08:28:06;;;;;;;0.10;0.10;;;17.40;89.70;;;;;;4867416;29;20041;-83
2023/10/19 08:30:34;;;;;;;0.10;0.10;;;17.30;89.70;;;;;;4866979;29;20406;-84
2023/10/19 08:32:59;;;;;;;0.10;0.10;;;17.30;89.60;;;;;;4852984;29;20489;-84
2023/10/19 08:35:26;;;;;;;0.10;0.10;;;17.30;89.70;;;;;;4885723;29;20052;-83
2023/10/19 08:37:59;;;;;;;0.10;0.10;;;17.40;89.80;;;;;;4864820;29;20527;-83
2023/10/19 08:40:26;;;;;;;0.10;0.10;;;17.40;89.50;;;;;;4873972;29;20017;-83
2023/10/19 08:42:53;;;;;;;0.10;0.10;;;17.50;89.50;;;;;;4876886;29;20038;-84
2023/10/19 08:45:21;;;;;;;0.17;0.10;;;17.40;89.50;;;;;;4867009;29;20021;-84
2023/10/19 08:48:16;;;;;;;0.10;0.10;;;17.40;89.50;;;;;;4858649;29;20033;-84
2023/10/19 08:50:43;;;;;;;0.20;0.20;;;17.30;89.50;;;;;;4871079;29;20102;-83
2023/10/19 08:53:10;;;;;;;0.10;0.10;;;17.40;89.50;;;;;;4885494;29;20577;-84
2023/10/19 08:55:35;;;;;;;0.10;0.10;;;17.50;89.30;;;;;;4865156;29;20490;-84
2023/10/19 08:58:04;;;;;;;0.10;0.10;;;17.70;88.80;;;;;;4866888;29;20065;-84
2023/10/19 09:00:46;;;;;;;0.10;0.10;;;17.80;88.80;;;;;;4865256;29;20097;-84
2023/10/19 09:03:13;;;;;;;0.10;0.10;;;17.90;88.40;;;;;;4871465;29;20104;-84
2023/10/19 09:05:40;;;;;;;0.13;0.13;;;17.90;88.00;;;;;;4869532;29;20037;-84
2023/10/19 09:08:06;;;;;;;0.10;0.10;;;17.90;88.40;;;;;;4849968;29;20061;-84
2023/10/19 09:10:32;;;;;;;0.10;0.10;;;17.80;88.20;;;;;;4862609;29;20044;-84
2023/10/19 09:13:12;;;;;;;0.10;0.10;;;17.80;88.30;;;;;;4866543;29;20058;-84
2023/10/19 09:15:39;;;;;;;0.08;0.08;;;17.70;88.50;;;;;;4854985;29;20035;-83
2023/10/19 09:18:19;;;;;;;0.10;0.10;;;17.70;88.30;;;;;;4881246;29;20030;-84
2023/10/19 09:20:53;;;;;;;0.00;0.00;;;17.70;88.40;;;;;;4849881;29;20025;-83
2023/10/19 09:23:28;;;;;;;0.10;0.10;;;17.70;88.30;;;;;;4849916;29;20100;-84
2023/10/19 09:25:56;;;;;;;0.10;0.10;;;17.70;88.40;;;;;;4864182;29;20029;-84
2023/10/19 09:28:23;;;;;;;0.00;0.00;;;17.80;88.20;;;;;;4867157;29;20041;-83
2023/10/19 09:30:50;;;;;;;0.10;0.10;;;17.90;88.10;;;;;;4870226;29;20553;-84
2023/10/19 09:33:17;;;;;;;0.10;0.10;;;18.00;88.00;;;;;;4883604;29;20033;-83
2023/10/19 09:35:48;;;;;;;0.10;0.10;;;18.20;88.00;;;;;;4881117;29;20033;-84
2023/10/19 09:38:21;;;;;;;0.10;0.10;;;18.40;87.50;;;;;;4883515;29;20037;-83
2023/10/19 09:40:59;;;;;;;0.03;0.03;;;18.30;87.10;;;;;;4884450;29;20050;-84
2023/10/19 09:43:48;;;;;;;0.00;0.00;;;18.30;87.10;;;;;;4880320;29;20029;-82
2023/10/19 09:46:28;;;;;;;0.08;0.08;;;18.30;86.80;;;;;;4880184;29;20060;-83
2023/10/19 09:48:54;;;;;;;0.10;0.10;;;18.30;87.00;;;;;;4878862;29;20048;-84
2023/10/19 09:51:21;;;;;;;0.10;0.10;;;18.30;86.60;;;;;;4865834;29;20398;-83
2023/10/19 09:54:09;;;;;;;0.00;0.00;;;18.30;86.00;;;;;;4865804;29;20033;-84
2023/10/19 09:56:38;;;;;;;0.00;0.00;;;18.40;86.70;;;;;;4878606;29;20097;-84
2023/10/19 09:59:38;;;;;;;0.10;0.10;;;18.60;86.60;;;;;;4865755;29;20033;-83
2023/10/19 10:02:08;;;;;;;0.10;0.10;;;18.80;86.20;;;;;;4865357;29;20518;-83
2023/10/19 10:04:37;;;;;;;0.10;0.10;;;18.90;86.10;;;;;;4880673;29;20103;-84
2023/10/19 10:07:06;;;;;;;0.00;0.00;;;19.20;85.60;;;;;;4867717;29;20036;-82
2023/10/19 10:09:43;;;;;;;0.05;0.05;;;19.20;85.10;;;;;;4865585;29;20030;-83
2023/10/19 10:12:27;;;;;;;0.00;0.00;;;19.20;85.40;;;;;;4879652;29;20575;-83
2023/10/19 10:14:57;;;;;;;0.10;0.10;;;19.20;85.10;;;;;;4883448;29;20032;-83
2023/10/19 10:17:25;;;;;;;0.10;0.10;;;19.20;85.00;;;;;;4876231;29;20029;-83
2023/10/19 10:19:55;;;;;;;0.10;0.10;;;19.20;84.90;;;;;;4883201;29;20028;-84
2023/10/19 10:22:21;;;;;;;0.10;0.10;;;19.00;84.30;;;;;;4868164;29;20498;-82
2023/10/19 10:24:54;;;;;;;0.10;0.10;;;18.90;85.10;;;;;;4865075;29;20057;-82
2023/10/19 10:27:19;;;;;;;0.10;0.10;;;18.80;85.50;;;;;;4865001;29;20108;-83
2023/10/19 10:29:59;;;;;;;0.10;0.10;;;18.70;85.40;;;;;;4878199;29;20057;-82
2023/10/19 10:32:43;;;;;;;0.05;0.05;;;18.70;86.00;;;;;;4865075;29;20570;-81
2023/10/19 10:35:09;;;;;;;0.10;0.10;;;18.60;86.10;;;;;;4863561;29;20041;-85
2023/10/19 10:37:39;;;;;;;0.10;0.10;;;18.50;86.40;;;;;;4862629;29;20524;-84
2023/10/19 10:40:06;;;;;;;0.00;0.00;;;18.50;86.40;;;;;;4850995;29;20025;-84
2023/10/19 10:42:32;;;;;;;0.10;0.10;;;18.60;86.50;;;;;;4863514;29;20026;-82
2023/10/19 10:44:58;;;;;;;0.10;0.10;;;18.50;86.60;;;;;;4864417;29;20033;-84
2023/10/19 10:47:29;;;;;;;0.10;0.10;;;18.40;86.70;;;;;;4864748;29;20482;-84
2023/10/19 10:49:59;;;;;;;0.08;0.08;;;18.50;86.80;;;;;;4864784;29;20072;-84
2023/10/19 10:52:25;;;;;;;0.00;0.00;;;18.40;86.40;;;;;;4871071;29;20033;-85
2023/10/19 10:54:51;;;;;;;0.10;0.10;;;18.40;86.60;;;;;;4864615;29;20033;-86
2023/10/19 10:57:18;;;;;;;0.10;0.10;;;18.30;86.60;;;;;;4864703;29;20045;-84
2023/10/19 10:59:43;;;;;;;0.10;0.10;;;18.30;86.60;;;;;;4864794;29;20392;-82
2023/10/19 11:02:19;;;;;;;0.10;0.10;;;18.30;86.60;;;;;;4864121;29;20044;-78
2023/10/19 11:04:46;;;;;;;0.00;0.00;;;18.30;86.50;;;;;;4880981;29;20029;-81
2023/10/19 11:07:19;;;;;;;0.10;0.10;;;18.20;86.50;;;;;;4883003;29;20025;-82
2023/10/19 11:09:46;;;;;;;0.10;0.10;;;18.20;87.10;;;;;;4883252;29;20040;-80
2023/10/19 11:12:13;;;;;;;0.00;0.00;;;18.00;87.70;;;;;;4870835;29;20089;-79
2023/10/19 11:14:53;;;;;;;0.05;0.05;;;17.80;87.30;;;;;;4864404;29;20032;-79
2023/10/19 11:17:19;;;;;;;0.00;0.00;;;17.30;86.90;;;;;;4864117;29;20040;-81
2023/10/19 11:19:45;;;;;;;0.10;0.05;;;17.00;87.30;;;;;;4864383;29;20084;-80
2023/10/19 11:22:11;;;;;;;0.00;0.00;;;16.80;88.40;;;;;;4874741;29;20021;-79
2023/10/19 11:24:39;;;;;;;0.10;0.10;;;16.80;88.30;;;;;;4865419;29;20025;-80
2023/10/19 11:27:07;;;;;;;0.00;0.00;;;16.80;89.00;;;;;;4864292;29;20502;-79
2023/10/19 11:29:33;;;;;;;0.05;0.05;;;16.80;88.50;;;;;;4864310;29;20040;-80
2023/10/19 11:32:02;;;;;;;0.10;0.10;;;16.80;88.60;;;;;;4863722;29;20057;-79
2023/10/19 11:34:34;;;;;;;0.03;0.03;;;16.80;88.60;;;;;;4878670;29;20033;-79
2023/10/19 11:37:00;;;;;;;0.00;0.00;;;16.80;88.40;;;;;;4877922;29;20029;-79
2023/10/19 11:39:26;;;;;;;0.10;0.10;;;17.00;88.80;;;;;;4882754;29;20112;-79
2023/10/19 11:41:52;;;;;;;0.10;0.10;;;17.00;88.40;;;;;;4866025;29;20116;-79
2023/10/19 11:44:19;;;;;;;0.10;0.10;;;17.10;88.10;;;;;;4867108;29;20486;-80
2023/10/19 11:46:45;;;;;;;0.10;0.10;;;17.20;88.50;;;;;;4863197;29;20041;-83
2023/10/19 11:49:11;;;;;;;0.10;0.10;;;17.40;88.80;;;;;;4866219;29;20026;-85
2023/10/19 11:51:37;;;;;;;0.10;0.10;;;17.50;88.30;;;;;;4867757;29;20052;-78
2023/10/19 11:54:06;;;;;;;0.08;0.08;;;17.60;88.30;;;;;;4868030;29;20112;-84
2023/10/19 11:56:32;;;;;;;0.10;0.10;;;17.60;88.00;;;;;;4867753;29;20109;-82
2023/10/19 11:58:57;;;;;;;0.10;0.10;;;17.70;88.10;;;;;;4867396;29;20037;-79
2023/10/19 12:01:25;;;;;;;0.10;0.10;;;17.60;87.90;;;;;;4867409;29;20112;-85
2023/10/19 12:03:51;;;;;;;0.10;0.10;;;17.70;87.80;;;;;;4869774;29;20032;-84
2023/10/19 12:06:20;;;;;;;0.00;0.00;;;17.70;87.50;;;;;;4869834;29;20132;-83
2023/10/19 12:08:47;;;;;;;0.10;0.10;;;17.70;87.40;;;;;;4868847;29;20033;-83
2023/10/19 12:11:16;;;;;;;0.10;0.10;;;17.80;87.30;;;;;;4886030;29;20028;-81
2023/10/19 12:13:45;;;;;;;0.10;0.10;;;17.80;87.40;;;;;;4885621;29;20021;-81
2023/10/19 12:16:17;;;;;;;0.10;0.10;;;17.80;87.30;;;;;;4868257;29;20025;-81
2023/10/19 12:18:44;;;;;;;0.10;0.10;;;18.00;87.60;;;;;;4850969;29;20120;-81
2023/10/19 12:21:17;;;;;;;0.10;0.10;;;18.10;87.40;;;;;;4850975;29;20435;-91
2023/10/19 12:23:44;;;;;;;0.10;0.10;;;18.30;87.20;;;;;;4865831;29;20462;-86
2023/10/19 12:26:14;;;;;;;0.10;0.10;;;18.30;86.60;;;;;;4885926;29;20033;-84
2023/10/19 12:28:41;;;;;;;0.10;0.10;;;18.50;87.00;;;;;;4869150;29;20025;-87
2023/10/19 12:31:11;;;;;;;0.10;0.10;;;18.60;86.60;;;;;;4885708;29;20056;-85
2023/10/19 12:33:41;;;;;;;0.10;0.10;;;18.70;86.60;;;;;;4868654;29;20090;-89
2023/10/19 12:38:52;;;;;;;0.10;0.10;;;18.50;86.10;;;;;;4885652;29;20040;-86
2023/10/19 12:41:19;;;;;;;0.10;0.10;;;18.50;86.00;;;;;;4865080;29;20038;-88
2023/10/19 12:43:47;;;;;;;0.10;0.10;;;18.40;86.00;;;;;;4866054;29;20104;-85
2023/10/19 12:46:14;;;;;;;0.10;0.10;;;18.50;86.30;;;;;;4866700;29;20059;-87
2023/10/19 12:48:43;;;;;;;0.10;0.10;;;18.40;86.30;;;;;;4865569;29;20033;-88
2023/10/19 12:51:11;;;;;;;0.10;0.10;;;18.40;85.70;;;;;;4865853;29;20037;-88
2023/10/19 12:53:38;;;;;;;0.10;0.10;;;18.40;85.90;;;;;;4854183;29;20125;-89
2023/10/19 12:56:04;;;;;;;0.00;0.00;;;18.30;85.80;;;;;;4866202;29;20041;-89
2023/10/19 12:58:31;;;;;;;0.10;0.10;;;18.40;86.00;;;;;;4859246;29;20053;-84
2023/10/19 13:00:58;;;;;;;0.00;0.00;;;18.30;85.50;;;;;;4864582;29;20041;-86
2023/10/19 13:03:31;;;;;;;0.00;0.00;;;18.30;85.60;;;;;;4871513;29;20510;-78
2023/10/19 13:05:57;;;;;;;;;;;18.20;84.80;;;;;;4869048;29;20108;-81
2023/10/19 13:08:27;;;;;;;0.00;0.00;;;18.20;85.10;;;;;;4864269;29;19912;-81
2023/10/19 13:10:52;;;;;;;0.00;0.00;;;18.20;84.60;;;;;;4866355;29;20093;-81
2023/10/19 13:13:18;;;;;;;0.10;0.10;;;18.00;84.30;;;;;;4866252;29;20033;-81
2023/10/19 13:15:45;;;;;;;0.10;0.10;;;18.00;84.70;;;;;;4849750;29;20041;-81
2023/10/19 13:18:22;;;;;;;0.00;0.00;;;18.00;84.30;;;;;;4870143;29;20033;-82
2023/10/19 13:20:48;;;;;;;0.08;0.08;;;18.10;84.50;;;;;;4885083;29;20028;-81
2023/10/19 13:23:21;;;;;;;0.10;0.10;;;18.10;84.40;;;;;;4864632;29;20072;-80
2023/10/19 13:25:50;;;;;;;;;;;18.00;84.10;;;;;;4865665;29;20028;-81
2023/10/19 13:28:18;;;;;;;0.10;0.10;;;18.00;84.40;;;;;;4866130;29;19908;-80
2023/10/19 13:30:49;;;;;;;0.17;0.10;;;18.00;84.30;;;;;;4866124;29;20514;-81
2023/10/19 13:33:15;;;;;;;0.00;0.00;;;18.00;84.30;;;;;;4867522;29;20398;-82
2023/10/19 13:35:42;;;;;;;0.00;0.00;;;18.10;84.50;;;;;;4884651;29;20044;-81
2023/10/19 13:38:10;;;;;;;0.10;0.10;;;18.10;84.10;;;;;;4849147;29;20363;-81
2023/10/19 13:40:38;;;;;;;0.00;0.00;;;18.20;83.80;;;;;;4874336;29;20049;-80
2023/10/19 13:43:06;;;;;;;0.00;0.00;;;18.20;83.80;;;;;;4884486;29;20040;-81
2023/10/19 13:45:33;;;;;;;0.10;0.10;;;18.20;83.60;;;;;;4884504;29;20053;-81
2023/10/19 13:48:00;;;;;;;0.00;0.00;;;18.30;83.30;;;;;;4863598;29;20045;-81
2023/10/19 13:50:26;;;;;;;0.00;0.00;;;18.20;83.60;;;;;;4849494;29;20057;-80
2023/10/19 13:52:54;;;;;;;0.10;0.10;;;18.20;82.90;;;;;;4849046;29;20037;-80
2023/10/19 13:55:20;;;;;;;0.03;0.03;;;18.30;83.90;;;;;;4867535;29;20554;-80
2023/10/19 13:57:47;;;;;;;0.10;0.10;;;18.30;83.80;;;;;;4884295;29;20076;-83
2023/10/19 14:00:19;;;;;;;0.00;0.00;;;18.30;83.50;;;;;;4872948;29;20026;-80
2023/10/19 14:02:48;;;;;;;0.10;0.10;;;18.30;83.90;;;;;;4866670;29;20040;-80
2023/10/19 14:05:14;;;;;;;0.00;0.00;;;18.30;84.10;;;;;;4884049;29;20032;-81
2023/10/19 14:07:40;;;;;;;0.00;0.00;;;18.20;83.50;;;;;;4884200;29;20029;-81
2023/10/19 14:10:08;;;;;;;0.00;0.00;;;18.30;83.90;;;;;;4865387;29;20503;-81
2023/10/19 14:12:33;;;;;;;0.00;0.00;;;18.20;83.60;;;;;;4864846;29;20118;-81
2023/10/19 14:14:59;;;;;;;0.00;0.00;;;18.10;83.60;;;;;;4865190;29;20026;-81
2023/10/19 14:17:25;;;;;;;0.00;0.00;;;18.10;83.00;;;;;;4865226;29;20101;-80
2023/10/19 14:19:51;;;;;;;0.00;0.00;;;18.10;83.90;;;;;;4858757;29;20013;-81
2023/10/19 14:22:17;;;;;;;0.00;0.00;;;18.20;83.50;;;;;;4867222;29;20033;-81
2023/10/19 14:24:44;;;;;;;0.00;0.00;;;18.20;83.60;;;;;;4883874;29;20431;-81
2023/10/19 14:27:10;;;;;;;0.00;0.00;;;18.20;83.90;;;;;;4875169;29;20029;-81
2023/10/19 14:29:36;;;;;;;0.03;0.03;;;18.10;83.90;;;;;;4864805;29;20056;-82
2023/10/19 14:32:02;;;;;;;0.00;0.00;;;18.00;83.60;;;;;;4877208;29;20063;-81
2023/10/19 14:34:28;;;;;;;0.05;0.05;;;18.00;83.50;;;;;;4883558;29;20036;-81
2023/10/19 14:36:54;;;;;;;0.10;0.10;;;17.90;83.60;;;;;;4877701;29;20037;-77
2023/10/19 14:39:20;;;;;;;0.03;0.03;;;18.00;83.90;;;;;;4864400;29;20089;-77
2023/10/19 14:41:46;;;;;;;0.00;0.00;;;17.90;83.50;;;;;;4882132;29;20033;-76
2023/10/19 14:44:12;;;;;;;0.00;0.00;;;18.00;83.80;;;;;;4873623;29;20514;-76
2023/10/19 14:46:38;;;;;;;0.10;0.10;;;18.00;83.40;;;;;;4896377;29;20045;-76
2023/10/19 14:49:03;;;;;;;0.00;0.00;;;18.00;83.90;;;;;;4880295;29;20089;-77
2023/10/19 14:51:30;;;;;;;0.00;0.00;;;18.00;84.10;;;;;;4882409;29;20029;-76
2023/10/19 14:53:56;;;;;;;0.00;0.00;;;18.10;84.30;;;;;;4879587;29;20025;-76
2023/10/19 14:56:21;;;;;;;0.10;0.10;;;18.10;84.40;;;;;;4880765;29;20036;-76
2023/10/19 14:58:47;;;;;;;0.10;0.10;;;18.10;83.30;;;;;;4887736;29;20028;-76
2023/10/19 15:01:16;;;;;;;0.00;0.00;;;18.10;84.00;;;;;;4889922;29;20029;-76
2023/10/19 15:03:43;;;;;;;0.10;0.10;;;18.10;83.70;;;;;;4886782;29;20396;-76
2023/10/19 15:06:08;;;;;;;0.00;0.00;;;18.10;84.00;;;;;;4886237;29;20037;-76
2023/10/19 15:08:34;;;;;;;0.00;0.00;;;18.10;84.00;;;;;;4890104;29;20582;-76
2023/10/19 15:10:59;;;;;;;0.00;0.00;;;18.10;83.80;;;;;;4884935;29;20040;-76
2023/10/19 15:13:25;;;;;;;0.00;0.00;;;18.10;83.60;;;;;;4883544;29;20040;-76
2023/10/19 15:15:51;;;;;;;0.00;0.00;;;18.00;84.10;;;;;;4889875;29;20033;-76
2023/10/19 15:18:18;;;;;;;0.00;0.00;;;18.00;84.30;;;;;;4889468;29;20043;-77
2023/10/19 15:20:44;;;;;;;0.00;0.00;;;18.00;84.20;;;;;;4887598;29;20025;-76
2023/10/19 15:23:10;;;;;;;0.10;0.10;;;17.90;84.10;;;;;;4891638;29;20539;-76
2023/10/19 15:25:40;;;;;;;0.10;0.10;;;18.00;84.40;;;;;;4891147;29;20025;-76
2023/10/19 15:28:05;;;;;;;0.00;0.00;;;17.90;83.10;;;;;;4889314;29;20065;-76
2023/10/19 15:30:31;;;;;;;0.00;0.00;;;17.80;84.10;;;;;;4891715;29;20056;-76
2023/10/19 15:32:58;;;;;;;0.00;0.00;;;17.80;84.20;;;;;;4889990;29;20101;-76
2023/10/19 15:35:23;;;;;;;0.10;0.10;;;17.80;84.20;;;;;;4889002;29;20036;-76
2023/10/19 15:37:54;;;;;;;0.00;0.00;;;17.70;84.10;;;;;;4890985;29;20037;-76
2023/10/19 15:40:20;;;;;;;0.00;0.00;;;17.70;84.10;;;;;;4890225;29;20462;-76
2023/10/19 15:42:46;;;;;;;0.00;0.00;;;17.60;84.50;;;;;;4888920;29;20021;-76
2023/10/19 15:45:13;;;;;;;0.00;0.00;;;17.60;84.70;;;;;;4890642;29;20040;-76
2023/10/19 15:47:40;;;;;;;0.00;0.00;;;17.50;84.60;;;;;;4876078;29;20021;-76
2023/10/19 15:50:09;;;;;;;0.10;0.10;;;17.50;84.80;;;;;;4891636;29;20490;-76
2023/10/19 15:52:40;;;;;;;0.00;0.00;;;17.60;84.80;;;;;;4888952;29;20085;-76
2023/10/19 15:55:05;;;;;;;0.05;0.05;;;17.60;84.40;;;;;;4868618;29;20029;-76
2023/10/19 15:57:33;;;;;;;0.00;0.00;;;17.60;84.70;;;;;;4879724;29;20667;-74
2023/10/19 15:59:59;;;;;;;0.00;0.00;;;17.50;84.70;;;;;;4882202;29;20021;-76
2023/10/19 16:02:24;;;;;;;0.00;0.00;;;17.50;84.80;;;;;;4879271;29;20082;-77
2023/10/19 16:04:50;;;;;;;0.10;0.10;;;17.50;84.80;;;;;;4875633;29;20029;-75
2023/10/19 16:07:16;;;;;;;0.00;0.00;;;17.40;84.50;;;;;;4885119;29;20037;-75
2023/10/19 16:09:42;;;;;;;0.00;0.00;;;17.40;84.70;;;;;;4865193;29;20032;-76
2023/10/19 16:12:11;;;;;;;0.00;0.00;;;17.40;85.00;;;;;;4880933;29;20033;-76
2023/10/19 16:14:38;;;;;;;0.00;0.00;;;17.40;84.90;;;;;;4882182;29;20037;-77
2023/10/19 16:17:04;;;;;;;0.10;0.10;;;17.40;85.00;;;;;;4880450;29;20642;-77
2023/10/19 16:19:30;;;;;;;0.00;0.00;;;17.40;85.00;;;;;;4881393;29;20025;-77
2023/10/19 16:21:59;;;;;;;0.00;0.00;;;17.40;85.10;;;;;;4882190;29;20112;-77
2023/10/19 16:24:26;;;;;;;0.00;0.00;;;17.40;85.30;;;;;;4881107;29;20527;-76
2023/10/19 16:26:52;;;;;;;0.10;0.10;;;17.40;85.50;;;;;;4877668;29;20115;-77
2023/10/19 16:29:19;;;;;;;0.00;0.00;;;17.50;85.40;;;;;;4881297;29;20025;-75
2023/10/19 16:31:46;;;;;;;0.00;0.00;;;17.50;85.40;;;;;;4881567;29;20049;-80
2023/10/19 16:34:13;;;;;;;0.00;0.00;;;17.50;85.40;;;;;;4865183;29;20048;-80
2023/10/19 16:36:40;;;;;;;0.00;0.00;;;17.50;85.40;;;;;;4878298;29;20037;-81
2023/10/19 16:39:08;;;;;;;0.00;0.00;;;17.50;85.60;;;;;;4867661;29;20158;-81
2023/10/19 16:41:34;;;;;;;0.05;0.05;;;17.50;85.60;;;;;;4867499;29;20092;-81
2023/10/19 16:44:00;;;;;;;0.00;0.00;;;17.50;85.80;;;;;;4881621;29;20046;-78
2023/10/19 16:46:28;;;;;;;0.00;0.00;;;17.40;85.70;;;;;;4864951;29;20032;-83
2023/10/19 16:48:54;;;;;;;0.00;0.00;;;17.50;85.80;;;;;;4866399;29;20025;-83
2023/10/19 16:51:21;;;;;;;0.05;0.05;;;17.40;85.60;;;;;;4863810;29;20040;-83
2023/10/19 16:53:48;;;;;;;0.05;0.05;;;17.30;86.00;;;;;;4867230;29;20036;-83
2023/10/19 16:56:15;;;;;;;0.03;0.03;;;17.30;85.80;;;;;;4857423;29;20359;-84
2023/10/19 16:58:43;;;;;;;0.08;0.08;;;17.20;85.50;;;;;;4884942;29;20017;-84
2023/10/19 17:01:12;;;;;;;0.00;0.00;;;17.20;85.70;;;;;;4877473;29;20070;-84
2023/10/19 17:03:40;;;;;;;0.00;0.00;;;17.30;85.80;;;;;;4862083;29;20036;-84
2023/10/19 17:06:08;;;;;;;0.00;0.00;;;17.20;85.90;;;;;;4863648;29;20505;-84
2023/10/19 17:08:35;;;;;;;0.00;0.00;;;17.20;85.80;;;;;;4882742;29;20029;-85
2023/10/19 17:11:02;;;;;;;0.00;0.00;;;17.20;85.80;;;;;;4872822;29;20045;-87
2023/10/19 17:13:29;;;;;;;0.00;0.00;;;17.30;86.10;;;;;;4884543;29;20049;-80
2023/10/19 17:15:55;;;;;;;0.00;0.00;;;17.30;86.10;;;;;;4869212;29;20029;-78
2023/10/19 17:18:22;;;;;;;0.00;0.00;;;17.20;85.90;;;;;;4881361;29;20025;-78
2023/10/19 17:20:47;;;;;;;0.10;0.10;;;17.20;85.90;;;;;;4868531;29;20029;-79
2023/10/19 17:23:13;;;;;;;0.10;0.10;;;17.10;86.30;;;;;;4874728;29;20058;-79
2023/10/19 17:25:40;;;;;;;0.00;0.00;;;17.10;86.30;;;;;;4870842;29;20485;-77